sensor_id;sensor_type;location;lat;lon;timestamp;P1;durP1;ratioP1;P2;durP2;ratioP2
12593;SDS011;6362;50.208;9.182;2023-02-22T00:01:14;16.38;;;9.90;;
12593;SDS011;6362;50.208;9.182;2023-02-22T00:03:59;14.55;;;8.52;;
12593;SDS011;6362;50.208;9.182;2023-02-22T00:06:26;13.85;;;8.00;;
12593;SDS011;6362;50.208;9.182;2023-02-22T00:08:53;11.68;;;8.18;;
12593;SDS011;6362;50.208;9.182;2023-02-22T00:11:19;13.05;;;8.05;;
12593;SDS011;6362;50.208;9.182;2023-02-22T00:13:45;11.30;;;8.02;;
12593;SDS011;6362;50.208;9.182;2023-02-22T00:16:14;11.73;;;8.32;;
12593;SDS011;6362;50.208;9.182;2023-02-22T00:18:41;13.07;;;8.23;;
12593;SDS011;6362;50.208;9.182;2023-02-22T00:21:08;12.07;;;7.28;;
12593;SDS011;6362;50.208;9.182;2023-02-22T00:23:34;11.15;;;8.15;;
12593;SDS011;6362;50.208;9.182;2023-02-22T00:26:04;13.25;;;8.63;;
12593;SDS011;6362;50.208;9.182;2023-02-22T00:28:34;11.13;;;7.80;;
12593;SDS011;6362;50.208;9.182;2023-02-22T00:31:03;11.02;;;7.47;;
12593;SDS011;6362;50.208;9.182;2023-02-22T00:33:30;10.20;;;7.63;;
12593;SDS011;6362;50.208;9.182;2023-02-22T00:35:57;12.60;;;8.57;;
12593;SDS011;6362;50.208;9.182;2023-02-22T00:38:23;11.63;;;7.72;;
12593;SDS011;6362;50.208;9.182;2023-02-22T00:40:49;12.70;;;7.65;;
12593;SDS011;6362;50.208;9.182;2023-02-22T00:43:14;10.25;;;7.10;;
12593;SDS011;6362;50.208;9.182;2023-02-22T00:45:40;14.02;;;8.85;;
12593;SDS011;6362;50.208;9.182;2023-02-22T00:48:06;11.32;;;7.90;;
12593;SDS011;6362;50.208;9.182;2023-02-22T00:50:32;11.48;;;8.40;;
12593;SDS011;6362;50.208;9.182;2023-02-22T00:52:59;11.10;;;6.88;;
12593;SDS011;6362;50.208;9.182;2023-02-22T00:55:26;12.10;;;8.25;;
12593;SDS011;6362;50.208;9.182;2023-02-22T00:57:54;12.35;;;8.50;;
12593;SDS011;6362;50.208;9.182;2023-02-22T01:00:25;11.55;;;7.65;;
12593;SDS011;6362;50.208;9.182;2023-02-22T01:02:52;14.27;;;8.48;;
12593;SDS011;6362;50.208;9.182;2023-02-22T01:05:20;12.27;;;8.65;;
12593;SDS011;6362;50.208;9.182;2023-02-22T01:07:48;11.20;;;8.35;;
12593;SDS011;6362;50.208;9.182;2023-02-22T01:10:16;13.45;;;9.40;;
12593;SDS011;6362;50.208;9.182;2023-02-22T01:12:43;11.55;;;7.70;;
12593;SDS011;6362;50.208;9.182;2023-02-22T01:15:10;10.80;;;7.40;;
12593;SDS011;6362;50.208;9.182;2023-02-22T01:17:36;8.68;;;6.47;;
12593;SDS011;6362;50.208;9.182;2023-02-22T01:20:08;12.05;;;7.43;;
12593;SDS011;6362;50.208;9.182;2023-02-22T01:22:36;12.20;;;8.50;;
12593;SDS011;6362;50.208;9.182;2023-02-22T01:25:06;13.82;;;9.18;;
12593;SDS011;6362;50.208;9.182;2023-02-22T01:27:33;11.30;;;8.15;;
12593;SDS011;6362;50.208;9.182;2023-02-22T01:29:59;11.90;;;7.75;;
12593;SDS011;6362;50.208;9.182;2023-02-22T01:32:25;13.15;;;6.40;;
12593;SDS011;6362;50.208;9.182;2023-02-22T01:34:54;9.85;;;6.00;;
12593;SDS011;6362;50.208;9.182;2023-02-22T01:37:20;11.88;;;7.38;;
12593;SDS011;6362;50.208;9.182;2023-02-22T01:39:45;10.55;;;6.35;;
12593;SDS011;6362;50.208;9.182;2023-02-22T01:42:11;12.48;;;7.68;;
12593;SDS011;6362;50.208;9.182;2023-02-22T01:44:37;10.73;;;6.95;;
12593;SDS011;6362;50.208;9.182;2023-02-22T01:47:05;11.82;;;7.35;;
12593;SDS011;6362;50.208;9.182;2023-02-22T01:49:47;9.88;;;7.35;;
12593;SDS011;6362;50.208;9.182;2023-02-22T01:52:16;11.48;;;7.10;;
12593;SDS011;6362;50.208;9.182;2023-02-22T01:54:48;11.75;;;7.30;;
12593;SDS011;6362;50.208;9.182;2023-02-22T01:59:47;13.88;;;6.60;;
12593;SDS011;6362;50.208;9.182;2023-02-22T02:02:17;9.70;;;6.57;;
12593;SDS011;6362;50.208;9.182;2023-02-22T02:04:45;12.73;;;7.10;;
12593;SDS011;6362;50.208;9.182;2023-02-22T02:07:13;9.55;;;6.63;;
12593;SDS011;6362;50.208;9.182;2023-02-22T02:12:23;10.90;;;7.20;;
12593;SDS011;6362;50.208;9.182;2023-02-22T02:14:51;15.23;;;7.38;;
12593;SDS011;6362;50.208;9.182;2023-02-22T02:17:18;11.15;;;7.53;;
12593;SDS011;6362;50.208;9.182;2023-02-22T02:20:04;13.82;;;7.38;;
12593;SDS011;6362;50.208;9.182;2023-02-22T02:25:27;10.65;;;7.90;;
12593;SDS011;6362;50.208;9.182;2023-02-22T02:34:30;11.07;;;6.78;;
12593;SDS011;6362;50.208;9.182;2023-02-22T02:39:56;12.68;;;8.13;;
12593;SDS011;6362;50.208;9.182;2023-02-22T02:42:34;13.68;;;8.73;;
12593;SDS011;6362;50.208;9.182;2023-02-22T02:45:17;12.02;;;7.93;;
12593;SDS011;6362;50.208;9.182;2023-02-22T02:47:48;11.35;;;8.57;;
12593;SDS011;6362;50.208;9.182;2023-02-22T02:50:22;10.73;;;7.43;;
12593;SDS011;6362;50.208;9.182;2023-02-22T02:52:48;11.65;;;7.93;;
12593;SDS011;6362;50.208;9.182;2023-02-22T02:55:17;12.20;;;8.25;;
12593;SDS011;6362;50.208;9.182;2023-02-22T02:57:42;11.68;;;8.18;;
12593;SDS011;6362;50.208;9.182;2023-02-22T03:00:09;10.85;;;7.88;;
12593;SDS011;6362;50.208;9.182;2023-02-22T03:08:39;12.57;;;7.50;;
12593;SDS011;6362;50.208;9.182;2023-02-22T03:11:08;12.05;;;7.85;;
12593;SDS011;6362;50.208;9.182;2023-02-22T03:18:58;10.68;;;7.18;;
12593;SDS011;6362;50.208;9.182;2023-02-22T03:21:30;11.27;;;7.78;;
12593;SDS011;6362;50.208;9.182;2023-02-22T03:24:05;10.63;;;7.45;;
12593;SDS011;6362;50.208;9.182;2023-02-22T03:26:50;11.27;;;7.80;;
12593;SDS011;6362;50.208;9.182;2023-02-22T03:29:42;11.93;;;6.65;;
12593;SDS011;6362;50.208;9.182;2023-02-22T03:32:11;10.75;;;8.05;;
12593;SDS011;6362;50.208;9.182;2023-02-22T03:34:42;11.88;;;6.97;;
12593;SDS011;6362;50.208;9.182;2023-02-22T03:37:24;9.07;;;6.80;;
12593;SDS011;6362;50.208;9.182;2023-02-22T03:39:58;9.57;;;7.20;;
12593;SDS011;6362;50.208;9.182;2023-02-22T03:42:26;13.20;;;7.55;;
12593;SDS011;6362;50.208;9.182;2023-02-22T03:44:55;10.25;;;7.05;;
12593;SDS011;6362;50.208;9.182;2023-02-22T03:47:27;11.43;;;7.55;;
12593;SDS011;6362;50.208;9.182;2023-02-22T03:50:02;12.38;;;8.43;;
12593;SDS011;6362;50.208;9.182;2023-02-22T03:52:34;10.60;;;7.63;;
12593;SDS011;6362;50.208;9.182;2023-02-22T03:55:01;11.38;;;8.00;;
12593;SDS011;6362;50.208;9.182;2023-02-22T03:57:31;10.90;;;6.75;;
12593;SDS011;6362;50.208;9.182;2023-02-22T03:59:59;12.77;;;7.78;;
12593;SDS011;6362;50.208;9.182;2023-02-22T04:02:25;8.18;;;6.75;;
12593;SDS011;6362;50.208;9.182;2023-02-22T04:04:50;8.07;;;6.45;;
12593;SDS011;6362;50.208;9.182;2023-02-22T04:07:16;10.00;;;7.05;;
12593;SDS011;6362;50.208;9.182;2023-02-22T04:09:41;9.32;;;6.70;;
12593;SDS011;6362;50.208;9.182;2023-02-22T04:12:07;8.65;;;6.18;;
12593;SDS011;6362;50.208;9.182;2023-02-22T04:14:33;9.38;;;6.22;;
12593;SDS011;6362;50.208;9.182;2023-02-22T04:16:58;9.80;;;6.35;;
12593;SDS011;6362;50.208;9.182;2023-02-22T04:19:24;8.88;;;6.28;;
12593;SDS011;6362;50.208;9.182;2023-02-22T04:21:49;9.43;;;6.25;;
12593;SDS011;6362;50.208;9.182;2023-02-22T04:24:15;9.43;;;6.57;;
12593;SDS011;6362;50.208;9.182;2023-02-22T04:26:40;8.27;;;5.97;;
12593;SDS011;6362;50.208;9.182;2023-02-22T04:29:06;8.57;;;6.45;;
12593;SDS011;6362;50.208;9.182;2023-02-22T04:31:32;7.72;;;5.40;;
12593;SDS011;6362;50.208;9.182;2023-02-22T04:33:58;11.35;;;6.35;;
12593;SDS011;6362;50.208;9.182;2023-02-22T04:36:25;9.20;;;6.13;;
12593;SDS011;6362;50.208;9.182;2023-02-22T04:38:52;7.88;;;5.80;;
12593;SDS011;6362;50.208;9.182;2023-02-22T04:41:18;8.88;;;6.25;;
12593;SDS011;6362;50.208;9.182;2023-02-22T04:43:44;8.23;;;5.45;;
12593;SDS011;6362;50.208;9.182;2023-02-22T04:46:10;8.45;;;5.55;;
12593;SDS011;6362;50.208;9.182;2023-02-22T04:48:36;8.38;;;5.60;;
12593;SDS011;6362;50.208;9.182;2023-02-22T04:51:02;6.72;;;5.22;;
12593;SDS011;6362;50.208;9.182;2023-02-22T04:53:28;7.72;;;5.38;;
12593;SDS011;6362;50.208;9.182;2023-02-22T04:55:53;8.75;;;5.75;;
12593;SDS011;6362;50.208;9.182;2023-02-22T04:58:19;8.00;;;5.72;;
12593;SDS011;6362;50.208;9.182;2023-02-22T05:00:45;8.45;;;5.88;;
12593;SDS011;6362;50.208;9.182;2023-02-22T05:03:10;8.38;;;5.72;;
12593;SDS011;6362;50.208;9.182;2023-02-22T05:05:36;8.02;;;5.40;;
12593;SDS011;6362;50.208;9.182;2023-02-22T05:08:01;9.23;;;5.95;;
12593;SDS011;6362;50.208;9.182;2023-02-22T05:10:27;8.02;;;5.90;;
12593;SDS011;6362;50.208;9.182;2023-02-22T05:12:52;9.85;;;5.45;;
12593;SDS011;6362;50.208;9.182;2023-02-22T05:15:18;8.48;;;5.80;;
12593;SDS011;6362;50.208;9.182;2023-02-22T05:17:45;10.27;;;6.65;;
12593;SDS011;6362;50.208;9.182;2023-02-22T05:20:15;7.82;;;5.68;;
12593;SDS011;6362;50.208;9.182;2023-02-22T05:22:45;8.27;;;5.88;;
12593;SDS011;6362;50.208;9.182;2023-02-22T05:25:11;8.10;;;5.88;;
12593;SDS011;6362;50.208;9.182;2023-02-22T05:27:36;10.73;;;7.60;;
12593;SDS011;6362;50.208;9.182;2023-02-22T05:30:02;10.38;;;6.55;;
12593;SDS011;6362;50.208;9.182;2023-02-22T05:32:28;8.35;;;6.57;;
12593;SDS011;6362;50.208;9.182;2023-02-22T05:34:53;8.57;;;6.25;;
12593;SDS011;6362;50.208;9.182;2023-02-22T05:37:18;8.93;;;6.38;;
12593;SDS011;6362;50.208;9.182;2023-02-22T05:39:44;9.93;;;7.00;;
12593;SDS011;6362;50.208;9.182;2023-02-22T05:42:10;11.20;;;5.93;;
12593;SDS011;6362;50.208;9.182;2023-02-22T05:44:36;8.65;;;6.20;;
12593;SDS011;6362;50.208;9.182;2023-02-22T05:47:01;7.63;;;5.95;;
12593;SDS011;6362;50.208;9.182;2023-02-22T05:49:27;8.77;;;6.43;;
12593;SDS011;6362;50.208;9.182;2023-02-22T05:51:52;10.95;;;6.47;;
12593;SDS011;6362;50.208;9.182;2023-02-22T05:54:23;10.88;;;6.75;;
12593;SDS011;6362;50.208;9.182;2023-02-22T05:56:48;10.48;;;7.00;;
12593;SDS011;6362;50.208;9.182;2023-02-22T05:59:14;8.27;;;6.18;;
12593;SDS011;6362;50.208;9.182;2023-02-22T06:01:39;10.63;;;6.72;;
12593;SDS011;6362;50.208;9.182;2023-02-22T06:04:05;9.00;;;6.35;;
12593;SDS011;6362;50.208;9.182;2023-02-22T06:06:30;9.75;;;6.28;;
12593;SDS011;6362;50.208;9.182;2023-02-22T06:08:56;10.35;;;6.90;;
12593;SDS011;6362;50.208;9.182;2023-02-22T06:11:21;10.27;;;6.63;;
12593;SDS011;6362;50.208;9.182;2023-02-22T06:13:51;9.30;;;6.15;;
12593;SDS011;6362;50.208;9.182;2023-02-22T06:16:18;7.97;;;5.70;;
12593;SDS011;6362;50.208;9.182;2023-02-22T06:18:45;8.30;;;6.07;;
12593;SDS011;6362;50.208;9.182;2023-02-22T06:21:11;9.20;;;6.43;;
12593;SDS011;6362;50.208;9.182;2023-02-22T06:23:36;9.38;;;6.40;;
12593;SDS011;6362;50.208;9.182;2023-02-22T06:26:02;9.27;;;5.60;;
12593;SDS011;6362;50.208;9.182;2023-02-22T06:28:27;9.07;;;6.28;;
12593;SDS011;6362;50.208;9.182;2023-02-22T06:30:53;9.32;;;6.32;;
12593;SDS011;6362;50.208;9.182;2023-02-22T06:33:18;8.55;;;6.63;;
12593;SDS011;6362;50.208;9.182;2023-02-22T06:35:44;10.18;;;7.30;;
12593;SDS011;6362;50.208;9.182;2023-02-22T06:38:09;10.63;;;6.03;;
12593;SDS011;6362;50.208;9.182;2023-02-22T06:40:35;10.85;;;6.68;;
12593;SDS011;6362;50.208;9.182;2023-02-22T06:43:01;8.85;;;6.57;;
12593;SDS011;6362;50.208;9.182;2023-02-22T06:45:26;9.05;;;6.63;;
12593;SDS011;6362;50.208;9.182;2023-02-22T06:47:52;9.38;;;6.28;;
12593;SDS011;6362;50.208;9.182;2023-02-22T06:50:21;8.32;;;6.10;;
12593;SDS011;6362;50.208;9.182;2023-02-22T06:52:49;11.13;;;7.03;;
12593;SDS011;6362;50.208;9.182;2023-02-22T06:55:25;10.90;;;7.13;;
12593;SDS011;6362;50.208;9.182;2023-02-22T06:57:52;9.73;;;6.80;;
12593;SDS011;6362;50.208;9.182;2023-02-22T07:00:20;13.88;;;8.02;;
12593;SDS011;6362;50.208;9.182;2023-02-22T07:02:48;12.15;;;7.18;;
12593;SDS011;6362;50.208;9.182;2023-02-22T07:05:14;14.45;;;8.90;;
12593;SDS011;6362;50.208;9.182;2023-02-22T07:07:42;13.40;;;8.95;;
12593;SDS011;6362;50.208;9.182;2023-02-22T07:10:14;11.90;;;8.30;;
12593;SDS011;6362;50.208;9.182;2023-02-22T07:12:44;9.73;;;6.97;;
12593;SDS011;6362;50.208;9.182;2023-02-22T07:15:09;11.20;;;7.40;;
12593;SDS011;6362;50.208;9.182;2023-02-22T07:17:35;8.43;;;6.53;;
12593;SDS011;6362;50.208;9.182;2023-02-22T07:20:00;10.85;;;7.32;;
12593;SDS011;6362;50.208;9.182;2023-02-22T07:22:25;10.27;;;6.57;;
12593;SDS011;6362;50.208;9.182;2023-02-22T07:24:51;10.57;;;6.00;;
12593;SDS011;6362;50.208;9.182;2023-02-22T07:27:16;11.65;;;7.93;;
12593;SDS011;6362;50.208;9.182;2023-02-22T07:29:42;8.75;;;6.35;;
12593;SDS011;6362;50.208;9.182;2023-02-22T07:32:07;10.73;;;7.15;;
12593;SDS011;6362;50.208;9.182;2023-02-22T07:34:33;10.20;;;7.07;;
12593;SDS011;6362;50.208;9.182;2023-02-22T07:36:59;10.02;;;6.60;;
12593;SDS011;6362;50.208;9.182;2023-02-22T07:39:24;10.40;;;6.55;;
12593;SDS011;6362;50.208;9.182;2023-02-22T07:41:51;10.20;;;6.35;;
12593;SDS011;6362;50.208;9.182;2023-02-22T07:44:16;10.65;;;6.50;;
12593;SDS011;6362;50.208;9.182;2023-02-22T07:46:45;8.25;;;6.50;;
12593;SDS011;6362;50.208;9.182;2023-02-22T07:49:12;7.82;;;5.70;;
12593;SDS011;6362;50.208;9.182;2023-02-22T07:51:38;7.10;;;5.47;;
12593;SDS011;6362;50.208;9.182;2023-02-22T07:54:04;8.85;;;5.88;;
12593;SDS011;6362;50.208;9.182;2023-02-22T07:56:29;8.85;;;6.25;;
12593;SDS011;6362;50.208;9.182;2023-02-22T07:58:55;7.82;;;5.18;;
12593;SDS011;6362;50.208;9.182;2023-02-22T08:01:20;9.00;;;5.80;;
12593;SDS011;6362;50.208;9.182;2023-02-22T08:03:46;10.90;;;6.60;;
12593;SDS011;6362;50.208;9.182;2023-02-22T08:06:11;10.55;;;6.47;;
12593;SDS011;6362;50.208;9.182;2023-02-22T08:08:37;8.77;;;6.75;;
12593;SDS011;6362;50.208;9.182;2023-02-22T08:11:03;11.95;;;6.72;;
12593;SDS011;6362;50.208;9.182;2023-02-22T08:13:29;10.32;;;6.47;;
12593;SDS011;6362;50.208;9.182;2023-02-22T08:15:55;12.10;;;8.05;;
12593;SDS011;6362;50.208;9.182;2023-02-22T08:18:20;10.13;;;7.00;;
12593;SDS011;6362;50.208;9.182;2023-02-22T08:20:48;9.98;;;6.70;;
12593;SDS011;6362;50.208;9.182;2023-02-22T08:23:16;10.32;;;6.65;;
12593;SDS011;6362;50.208;9.182;2023-02-22T08:25:42;13.18;;;6.43;;
12593;SDS011;6362;50.208;9.182;2023-02-22T08:28:09;10.50;;;6.40;;
12593;SDS011;6362;50.208;9.182;2023-02-22T08:30:37;9.85;;;6.80;;
12593;SDS011;6362;50.208;9.182;2023-02-22T08:33:04;13.02;;;7.85;;
12593;SDS011;6362;50.208;9.182;2023-02-22T08:35:30;11.43;;;7.10;;
12593;SDS011;6362;50.208;9.182;2023-02-22T08:38:00;11.38;;;7.03;;
12593;SDS011;6362;50.208;9.182;2023-02-22T08:40:29;13.00;;;6.43;;
12593;SDS011;6362;50.208;9.182;2023-02-22T08:42:56;8.10;;;6.18;;
12593;SDS011;6362;50.208;9.182;2023-02-22T08:45:22;9.43;;;6.00;;
12593;SDS011;6362;50.208;9.182;2023-02-22T08:47:48;8.07;;;5.70;;
12593;SDS011;6362;50.208;9.182;2023-02-22T08:50:16;9.23;;;6.03;;
12593;SDS011;6362;50.208;9.182;2023-02-22T08:52:48;7.50;;;5.60;;
12593;SDS011;6362;50.208;9.182;2023-02-22T08:55:19;11.52;;;5.95;;
12593;SDS011;6362;50.208;9.182;2023-02-22T08:57:47;8.73;;;6.10;;
12593;SDS011;6362;50.208;9.182;2023-02-22T09:00:14;7.93;;;5.80;;
12593;SDS011;6362;50.208;9.182;2023-02-22T09:02:41;8.73;;;6.45;;
12593;SDS011;6362;50.208;9.182;2023-02-22T09:05:06;9.45;;;6.00;;
12593;SDS011;6362;50.208;9.182;2023-02-22T09:07:32;9.07;;;6.20;;
12593;SDS011;6362;50.208;9.182;2023-02-22T09:09:57;10.38;;;5.82;;
12593;SDS011;6362;50.208;9.182;2023-02-22T09:12:23;14.68;;;6.03;;
12593;SDS011;6362;50.208;9.182;2023-02-22T09:14:48;9.95;;;5.65;;
12593;SDS011;6362;50.208;9.182;2023-02-22T09:17:14;9.68;;;5.45;;
12593;SDS011;6362;50.208;9.182;2023-02-22T09:19:39;11.00;;;5.90;;
12593;SDS011;6362;50.208;9.182;2023-02-22T09:22:05;8.55;;;6.57;;
12593;SDS011;6362;50.208;9.182;2023-02-22T09:24:30;10.70;;;5.82;;
12593;SDS011;6362;50.208;9.182;2023-02-22T09:26:56;9.50;;;6.38;;
12593;SDS011;6362;50.208;9.182;2023-02-22T09:29:25;10.40;;;6.05;;
12593;SDS011;6362;50.208;9.182;2023-02-22T09:31:52;11.23;;;6.00;;
12593;SDS011;6362;50.208;9.182;2023-02-22T09:34:19;9.85;;;6.10;;
12593;SDS011;6362;50.208;9.182;2023-02-22T09:36:47;10.35;;;6.25;;
12593;SDS011;6362;50.208;9.182;2023-02-22T09:39:14;10.02;;;6.60;;
12593;SDS011;6362;50.208;9.182;2023-02-22T09:44:55;6.75;;;5.47;;
12593;SDS011;6362;50.208;9.182;2023-02-22T09:50:25;8.23;;;6.60;;
12593;SDS011;6362;50.208;9.182;2023-02-22T09:52:59;8.65;;;6.30;;
12593;SDS011;6362;50.208;9.182;2023-02-22T09:58:01;8.48;;;6.72;;
12593;SDS011;6362;50.208;9.182;2023-02-22T10:00:32;7.25;;;6.18;;
12593;SDS011;6362;50.208;9.182;2023-02-22T10:03:12;9.52;;;5.85;;
12593;SDS011;6362;50.208;9.182;2023-02-22T10:06:32;13.23;;;6.05;;
12593;SDS011;6362;50.208;9.182;2023-02-22T10:08:36;7.78;;;5.35;;
12593;SDS011;6362;50.208;9.182;2023-02-22T10:14:33;8.70;;;5.75;;
12593;SDS011;6362;50.208;9.182;2023-02-22T10:25:02;8.48;;;6.13;;
12593;SDS011;6362;50.208;9.182;2023-02-22T10:35:29;10.60;;;5.53;;
12593;SDS011;6362;50.208;9.182;2023-02-22T10:38:00;7.97;;;5.55;;
12593;SDS011;6362;50.208;9.182;2023-02-22T10:40:36;7.47;;;4.85;;
12593;SDS011;6362;50.208;9.182;2023-02-22T10:43:03;8.98;;;4.93;;
12593;SDS011;6362;50.208;9.182;2023-02-22T10:45:31;8.20;;;5.15;;
12593;SDS011;6362;50.208;9.182;2023-02-22T10:48:19;7.53;;;5.18;;
12593;SDS011;6362;50.208;9.182;2023-02-22T10:50:45;7.72;;;4.97;;
12593;SDS011;6362;50.208;9.182;2023-02-22T10:53:12;13.40;;;7.05;;
12593;SDS011;6362;50.208;9.182;2023-02-22T11:01:25;7.55;;;4.95;;
12593;SDS011;6362;50.208;9.182;2023-02-22T11:09:25;7.10;;;5.22;;
12593;SDS011;6362;50.208;9.182;2023-02-22T11:12:09;10.55;;;6.30;;
12593;SDS011;6362;50.208;9.182;2023-02-22T11:14:35;8.00;;;5.82;;
12593;SDS011;6362;50.208;9.182;2023-02-22T11:17:05;6.88;;;5.53;;
12593;SDS011;6362;50.208;9.182;2023-02-22T11:19:32;8.00;;;5.50;;
12593;SDS011;6362;50.208;9.182;2023-02-22T11:24:31;8.00;;;5.45;;
12593;SDS011;6362;50.208;9.182;2023-02-22T11:26:59;6.45;;;5.00;;
12593;SDS011;6362;50.208;9.182;2023-02-22T11:29:27;7.50;;;4.97;;
12593;SDS011;6362;50.208;9.182;2023-02-22T11:31:56;5.20;;;4.40;;
12593;SDS011;6362;50.208;9.182;2023-02-22T11:34:24;7.40;;;4.90;;
12593;SDS011;6362;50.208;9.182;2023-02-22T11:36:50;7.00;;;4.90;;
12593;SDS011;6362;50.208;9.182;2023-02-22T11:42:12;5.90;;;4.50;;
12593;SDS011;6362;50.208;9.182;2023-02-22T11:44:47;6.40;;;4.93;;
12593;SDS011;6362;50.208;9.182;2023-02-22T11:47:12;7.75;;;5.15;;
12593;SDS011;6362;50.208;9.182;2023-02-22T11:49:38;11.57;;;5.22;;
12593;SDS011;6362;50.208;9.182;2023-02-22T11:52:11;6.70;;;5.03;;
12593;SDS011;6362;50.208;9.182;2023-02-22T12:10:55;9.77;;;5.95;;
12593;SDS011;6362;50.208;9.182;2023-02-22T12:13:33;9.20;;;6.35;;
12593;SDS011;6362;50.208;9.182;2023-02-22T12:16:12;7.40;;;6.63;;
12593;SDS011;6362;50.208;9.182;2023-02-22T12:21:29;8.15;;;6.72;;
12593;SDS011;6362;50.208;9.182;2023-02-22T12:24:02;9.55;;;7.13;;
12593;SDS011;6362;50.208;9.182;2023-02-22T12:26:30;8.15;;;6.50;;
12593;SDS011;6362;50.208;9.182;2023-02-22T12:36:46;8.55;;;7.65;;
12593;SDS011;6362;50.208;9.182;2023-02-22T12:39:26;8.88;;;5.95;;
12593;SDS011;6362;50.208;9.182;2023-02-22T12:42:00;9.57;;;7.07;;
12593;SDS011;6362;50.208;9.182;2023-02-22T12:44:35;10.35;;;7.22;;
12593;SDS011;6362;50.208;9.182;2023-02-22T12:47:05;10.27;;;7.20;;
12593;SDS011;6362;50.208;9.182;2023-02-22T12:49:35;10.60;;;7.38;;
12593;SDS011;6362;50.208;9.182;2023-02-22T12:52:18;11.73;;;7.85;;
12593;SDS011;6362;50.208;9.182;2023-02-22T12:58:20;10.13;;;7.53;;
12593;SDS011;6362;50.208;9.182;2023-02-22T13:00:47;9.15;;;6.57;;
12593;SDS011;6362;50.208;9.182;2023-02-22T13:03:35;9.75;;;8.35;;
12593;SDS011;6362;50.208;9.182;2023-02-22T13:12:24;11.27;;;8.90;;
12593;SDS011;6362;50.208;9.182;2023-02-22T13:15:16;13.35;;;9.25;;
12593;SDS011;6362;50.208;9.182;2023-02-22T13:23:20;12.45;;;8.63;;
12593;SDS011;6362;50.208;9.182;2023-02-22T13:28:43;12.55;;;9.30;;
12593;SDS011;6362;50.208;9.182;2023-02-22T13:36:52;11.73;;;9.10;;
12593;SDS011;6362;50.208;9.182;2023-02-22T13:39:37;11.00;;;8.48;;
12593;SDS011;6362;50.208;9.182;2023-02-22T13:42:31;12.88;;;8.65;;
12593;SDS011;6362;50.208;9.182;2023-02-22T13:48:01;15.52;;;10.32;;
12593;SDS011;6362;50.208;9.182;2023-02-22T13:51:02;11.93;;;9.32;;
12593;SDS011;6362;50.208;9.182;2023-02-22T13:53:52;15.50;;;10.02;;
12593;SDS011;6362;50.208;9.182;2023-02-22T13:56:21;14.57;;;9.98;;
12593;SDS011;6362;50.208;9.182;2023-02-22T13:58:52;14.35;;;9.55;;
12593;SDS011;6362;50.208;9.182;2023-02-22T14:15:14;14.48;;;10.48;;
12593;SDS011;6362;50.208;9.182;2023-02-22T14:22:44;14.05;;;10.13;;
12593;SDS011;6362;50.208;9.182;2023-02-22T14:27:58;15.27;;;10.70;;
12593;SDS011;6362;50.208;9.182;2023-02-22T14:30:28;16.77;;;10.70;;
12593;SDS011;6362;50.208;9.182;2023-02-22T14:32:58;14.95;;;10.75;;
12593;SDS011;6362;50.208;9.182;2023-02-22T14:35:25;15.75;;;9.60;;
12593;SDS011;6362;50.208;9.182;2023-02-22T14:38:05;17.30;;;10.70;;
12593;SDS011;6362;50.208;9.182;2023-02-22T14:40:42;13.82;;;9.60;;
12593;SDS011;6362;50.208;9.182;2023-02-22T14:43:13;16.50;;;10.13;;
12593;SDS011;6362;50.208;9.182;2023-02-22T14:45:50;15.30;;;9.48;;
12593;SDS011;6362;50.208;9.182;2023-02-22T14:48:32;15.38;;;9.75;;
12593;SDS011;6362;50.208;9.182;2023-02-22T14:53:50;12.15;;;8.80;;
12593;SDS011;6362;50.208;9.182;2023-02-22T15:01:21;12.80;;;8.82;;
12593;SDS011;6362;50.208;9.182;2023-02-22T15:03:50;12.73;;;8.88;;
12593;SDS011;6362;50.208;9.182;2023-02-22T15:06:23;9.82;;;7.85;;
12593;SDS011;6362;50.208;9.182;2023-02-22T15:09:11;12.20;;;8.15;;
12593;SDS011;6362;50.208;9.182;2023-02-22T15:11:39;9.88;;;7.88;;
12593;SDS011;6362;50.208;9.182;2023-02-22T15:14:16;11.98;;;7.90;;
12593;SDS011;6362;50.208;9.182;2023-02-22T15:16:57;12.93;;;7.63;;
12593;SDS011;6362;50.208;9.182;2023-02-22T15:19:26;13.48;;;8.35;;
12593;SDS011;6362;50.208;9.182;2023-02-22T15:21:55;12.18;;;7.93;;
12593;SDS011;6362;50.208;9.182;2023-02-22T15:24:29;11.20;;;8.20;;
12593;SDS011;6362;50.208;9.182;2023-02-22T15:29:40;10.77;;;7.13;;
12593;SDS011;6362;50.208;9.182;2023-02-22T15:37:56;13.20;;;7.93;;
12593;SDS011;6362;50.208;9.182;2023-02-22T15:40:30;11.70;;;8.07;;
12593;SDS011;6362;50.208;9.182;2023-02-22T15:43:02;11.95;;;7.53;;
12593;SDS011;6362;50.208;9.182;2023-02-22T15:45:33;10.27;;;7.07;;
12593;SDS011;6362;50.208;9.182;2023-02-22T15:47:59;11.85;;;7.85;;
12593;SDS011;6362;50.208;9.182;2023-02-22T15:50:29;13.55;;;9.02;;
12593;SDS011;6362;50.208;9.182;2023-02-22T15:55:44;11.55;;;8.30;;
12593;SDS011;6362;50.208;9.182;2023-02-22T16:00:39;13.50;;;7.57;;
12593;SDS011;6362;50.208;9.182;2023-02-22T16:03:07;12.30;;;7.72;;
12593;SDS011;6362;50.208;9.182;2023-02-22T16:05:37;14.30;;;8.65;;
12593;SDS011;6362;50.208;9.182;2023-02-22T16:08:15;9.50;;;6.93;;
12593;SDS011;6362;50.208;9.182;2023-02-22T16:10:48;10.13;;;7.53;;
12593;SDS011;6362;50.208;9.182;2023-02-22T16:13:49;11.68;;;7.40;;
12593;SDS011;6362;50.208;9.182;2023-02-22T16:18:49;11.57;;;7.45;;
12593;SDS011;6362;50.208;9.182;2023-02-22T16:21:17;10.18;;;6.50;;
12593;SDS011;6362;50.208;9.182;2023-02-22T16:23:49;9.20;;;5.30;;
12593;SDS011;6362;50.208;9.182;2023-02-22T16:26:18;10.80;;;5.55;;
12593;SDS011;6362;50.208;9.182;2023-02-22T16:28:46;11.15;;;5.57;;
12593;SDS011;6362;50.208;9.182;2023-02-22T16:31:25;6.57;;;4.90;;
12593;SDS011;6362;50.208;9.182;2023-02-22T16:33:53;10.85;;;5.63;;
12593;SDS011;6362;50.208;9.182;2023-02-22T16:36:19;14.15;;;5.90;;
12593;SDS011;6362;50.208;9.182;2023-02-22T16:38:47;8.55;;;5.78;;
12593;SDS011;6362;50.208;9.182;2023-02-22T16:41:17;10.82;;;5.85;;
12593;SDS011;6362;50.208;9.182;2023-02-22T16:43:46;8.13;;;5.43;;
12593;SDS011;6362;50.208;9.182;2023-02-22T16:46:15;9.43;;;5.90;;
12593;SDS011;6362;50.208;9.182;2023-02-22T16:48:42;9.93;;;5.68;;
12593;SDS011;6362;50.208;9.182;2023-02-22T16:51:16;9.80;;;5.70;;
12593;SDS011;6362;50.208;9.182;2023-02-22T16:53:44;10.68;;;5.70;;
12593;SDS011;6362;50.208;9.182;2023-02-22T16:56:10;11.05;;;5.05;;
12593;SDS011;6362;50.208;9.182;2023-02-22T16:58:40;10.05;;;5.38;;
12593;SDS011;6362;50.208;9.182;2023-02-22T17:01:07;7.90;;;5.32;;
12593;SDS011;6362;50.208;9.182;2023-02-22T17:03:33;12.88;;;5.93;;
12593;SDS011;6362;50.208;9.182;2023-02-22T17:05:59;10.50;;;6.32;;
12593;SDS011;6362;50.208;9.182;2023-02-22T17:08:25;8.88;;;5.72;;
12593;SDS011;6362;50.208;9.182;2023-02-22T17:10:50;8.10;;;5.60;;
12593;SDS011;6362;50.208;9.182;2023-02-22T17:13:21;8.85;;;5.35;;
12593;SDS011;6362;50.208;9.182;2023-02-22T17:15:48;10.65;;;6.82;;
12593;SDS011;6362;50.208;9.182;2023-02-22T17:18:15;12.15;;;5.70;;
12593;SDS011;6362;50.208;9.182;2023-02-22T17:20:46;11.98;;;6.72;;
12593;SDS011;6362;50.208;9.182;2023-02-22T17:23:12;9.07;;;6.65;;
12593;SDS011;6362;50.208;9.182;2023-02-22T17:28:06;11.27;;;6.78;;
12593;SDS011;6362;50.208;9.182;2023-02-22T17:30:32;10.85;;;6.15;;
12593;SDS011;6362;50.208;9.182;2023-02-22T17:32:59;8.57;;;5.25;;
12593;SDS011;6362;50.208;9.182;2023-02-22T17:35:28;8.35;;;5.85;;
12593;SDS011;6362;50.208;9.182;2023-02-22T17:37:58;13.27;;;6.32;;
12593;SDS011;6362;50.208;9.182;2023-02-22T17:40:25;9.90;;;5.85;;
12593;SDS011;6362;50.208;9.182;2023-02-22T17:42:52;8.43;;;5.55;;
12593;SDS011;6362;50.208;9.182;2023-02-22T17:45:20;8.98;;;5.13;;
12593;SDS011;6362;50.208;9.182;2023-02-22T17:47:50;9.25;;;6.05;;
12593;SDS011;6362;50.208;9.182;2023-02-22T17:50:17;9.68;;;5.18;;
12593;SDS011;6362;50.208;9.182;2023-02-22T17:52:44;10.40;;;6.07;;
12593;SDS011;6362;50.208;9.182;2023-02-22T17:55:10;8.98;;;5.90;;
12593;SDS011;6362;50.208;9.182;2023-02-22T17:57:36;14.05;;;6.82;;
12593;SDS011;6362;50.208;9.182;2023-02-22T18:00:05;13.95;;;7.70;;